createdAt,value
2023-04-22T00:03:06.716Z,99677
2023-04-22T00:09:46.162Z,99669
2023-04-22T00:15:45.910Z,99666
2023-04-22T00:22:29.028Z,99668
2023-04-22T00:28:42.170Z,99666
2023-04-22T00:34:47.024Z,99663
2023-04-22T00:40:54.434Z,99672
2023-04-22T00:47:03.541Z,99677
2023-04-22T00:59:50.787Z,99681
2023-04-22T01:06:06.998Z,99684
2023-04-22T01:12:18.165Z,99687
2023-04-22T01:30:52.805Z,99671
2023-04-22T01:37:01.198Z,99675
2023-04-22T01:43:22.252Z,99669
2023-04-22T01:49:13.907Z,99661
2023-04-22T01:55:07.674Z,99660
2023-04-22T02:01:02.329Z,99658
2023-04-22T02:07:03.546Z,99652
2023-04-22T02:13:04.325Z,99650
2023-04-22T02:19:08.208Z,99650
2023-04-22T02:25:01.136Z,99643
2023-04-22T02:31:00.871Z,99644
2023-04-22T02:36:55.468Z,99649
2023-04-22T02:42:48.639Z,99652
2023-04-22T02:48:41.367Z,99644
2023-04-22T02:54:36.472Z,99633
2023-04-22T03:00:34.186Z,99635
2023-04-22T03:06:31.954Z,99632
2023-04-22T03:12:35.839Z,99627
2023-04-22T03:18:30.797Z,99631
2023-04-22T03:24:32.697Z,99629
2023-04-22T03:30:33.232Z,99631
2023-04-22T03:36:34.411Z,99630
2023-04-22T03:42:32.574Z,99634
2023-04-22T03:48:32.039Z,99626
2023-04-22T03:54:44.911Z,99617
2023-04-22T04:00:50.674Z,99603
2023-04-22T04:06:44.422Z,99594
2023-04-22T04:12:37.479Z,99589
2023-04-22T04:18:28.956Z,99578
2023-04-22T04:24:20.845Z,99577
2023-04-22T04:30:15.029Z,99579
2023-04-22T04:36:10.748Z,99582
2023-04-22T04:42:20.252Z,99570
2023-04-22T04:48:13.768Z,99574
2023-04-22T04:54:05.172Z,99587
2023-04-22T04:59:59.430Z,99585
2023-04-22T05:05:52.808Z,99593
2023-04-22T05:11:48.832Z,99589
2023-04-22T05:17:41.366Z,99600
2023-04-22T05:23:32.418Z,99608
2023-04-22T05:29:22.776Z,99600
2023-04-22T05:35:14.334Z,99599
2023-04-22T05:41:07.104Z,99601
2023-04-22T05:47:02.849Z,99598
2023-04-22T05:52:54.312Z,99600
2023-04-22T05:58:46.045Z,99594
2023-04-22T06:04:46.759Z,99587
2023-04-22T06:10:39.920Z,99583
2023-04-22T06:17:06.236Z,99581
2023-04-22T06:35:54.760Z,99582
2023-04-22T06:42:22.068Z,99588
2023-04-22T06:48:30.455Z,99579
2023-04-22T06:54:29.466Z,99580
2023-04-22T07:07:18.666Z,99580
2023-04-22T07:19:42.887Z,99569
2023-04-22T07:26:03.247Z,99565
2023-04-22T07:32:07.068Z,99571
2023-04-22T07:44:26.861Z,99551
2023-04-22T07:50:54.285Z,99551
2023-04-22T07:57:03.416Z,99546
2023-04-22T08:03:20.711Z,99536
2023-04-22T08:09:54.257Z,99535
2023-04-22T08:15:56.430Z,99525
2023-04-22T08:21:50.945Z,99517
2023-04-22T08:27:46.553Z,99531
2023-04-22T08:33:40.625Z,99526
2023-04-22T08:39:37.356Z,99534
2023-04-22T08:45:38.629Z,99526
2023-04-22T08:51:51.491Z,99522
2023-04-22T08:57:45.733Z,99509
2023-04-22T09:03:42.855Z,99515
2023-04-22T09:09:35.271Z,99497
2023-04-22T09:15:34.865Z,99506
2023-04-22T09:21:24.405Z,99498
2023-04-22T09:27:16.710Z,99496
2023-04-22T09:33:08.723Z,99486
2023-04-22T09:39:00.705Z,99492
2023-04-22T09:44:53.097Z,99501
2023-04-22T09:50:45.808Z,99494
2023-04-22T09:56:37.869Z,99489
2023-04-22T10:02:30.686Z,99507
2023-04-22T10:08:23.706Z,99499
2023-04-22T10:14:16.759Z,99486
2023-04-22T10:20:08.897Z,99489
2023-04-22T10:26:00.811Z,99485
2023-04-22T10:31:53.672Z,99490
2023-04-22T10:37:46.632Z,99487
2023-04-22T10:43:38.437Z,99493
2023-04-22T10:49:30.910Z,99502
2023-04-22T10:55:22.677Z,99466
2023-04-22T11:01:14.610Z,99496
2023-04-22T11:07:06.623Z,99493
2023-04-22T11:12:58.260Z,99499
2023-04-22T11:18:50.490Z,99501
2023-04-22T11:24:42.236Z,99503
2023-04-22T11:30:34.143Z,99494
2023-04-22T11:36:26.230Z,99496
2023-04-22T11:42:18.435Z,99496
2023-04-22T11:48:10.361Z,99496
2023-04-22T11:54:03.408Z,99494
2023-04-22T11:59:55.981Z,99491
2023-04-22T12:05:47.914Z,99491
2023-04-22T12:11:39.785Z,99487
2023-04-22T12:17:31.578Z,99477
2023-04-22T12:23:23.485Z,99483
2023-04-22T12:29:15.375Z,99479
2023-04-22T12:35:09.199Z,99468
2023-04-22T12:41:00.188Z,99474
2023-04-22T12:46:52.869Z,99479
2023-04-22T12:52:44.584Z,99492
2023-04-22T12:58:36.652Z,99490
2023-04-22T13:04:28.602Z,99493
2023-04-22T13:10:21.133Z,99489
2023-04-22T13:16:13.214Z,99503
2023-04-22T13:22:06.703Z,99488
2023-04-22T13:28:00.668Z,99499
2023-04-22T13:33:52.952Z,99492
2023-04-22T13:39:45.484Z,99488
2023-04-22T13:45:37.797Z,99488
2023-04-22T13:51:29.655Z,99487
2023-04-22T13:57:21.791Z,99490
2023-04-22T14:03:14.146Z,99481
2023-04-22T14:09:06.663Z,99482
2023-04-22T14:14:58.980Z,99479
2023-04-22T14:20:50.794Z,99488
2023-04-22T14:26:42.973Z,99483
2023-04-22T14:32:35.309Z,99491
2023-04-22T14:38:27.992Z,99477
2023-04-22T14:44:19.885Z,99487
2023-04-22T14:50:12.006Z,99478
2023-04-22T14:56:03.316Z,99483
2023-04-22T15:01:56.155Z,99493
2023-04-22T15:07:48.355Z,99483
2023-04-22T15:13:40.848Z,99483
2023-04-22T15:19:41.707Z,99485
2023-04-22T15:31:40.494Z,99483
2023-04-22T15:37:32.935Z,99488
2023-04-22T15:43:26.127Z,99486
2023-04-22T15:49:21.287Z,99505
2023-04-22T15:55:15.526Z,99499
2023-04-22T16:01:23.376Z,99496
2023-04-22T16:07:15.623Z,99486
2023-04-22T16:13:08.424Z,99504
2023-04-22T16:19:04.048Z,99486
2023-04-22T16:24:58.118Z,99491
2023-04-22T16:30:53.527Z,99504
2023-04-22T16:36:48.160Z,99506
2023-04-22T16:42:49.849Z,99504
2023-04-22T16:48:42.903Z,99492
2023-04-22T16:54:35.063Z,99494
2023-04-22T17:00:28.196Z,99491
2023-04-22T17:06:20.723Z,99507
2023-04-22T17:12:17.631Z,99517
2023-04-22T17:18:25.712Z,99533
2023-04-22T17:24:23.045Z,99535
2023-04-22T17:30:29.419Z,99547
2023-04-22T17:36:42.481Z,99542
2023-04-22T17:42:51.101Z,99533
2023-04-22T17:48:56.074Z,99523
2023-04-22T17:55:05.571Z,99528
2023-04-22T18:07:33.517Z,99560
2023-04-22T18:13:28.210Z,99566
2023-04-22T18:19:29.308Z,99570
2023-04-22T18:25:24.792Z,99573
2023-04-22T18:31:17.105Z,99576
2023-04-22T18:37:38.803Z,99579
2023-04-22T18:43:46.234Z,99571
2023-04-22T18:50:09.796Z,99584
2023-04-22T18:56:04.159Z,99589
2023-04-22T19:02:04.167Z,99581
2023-04-22T19:08:00.549Z,99600
2023-04-22T19:14:06.971Z,99597
2023-04-22T19:20:08.318Z,99589
2023-04-22T19:26:13.161Z,99585
2023-04-22T19:32:30.101Z,99587
2023-04-22T19:44:53.899Z,99607
2023-04-22T19:57:35.034Z,99615
2023-04-22T20:04:52.303Z,99615
2023-04-22T20:16:55.124Z,99611
2023-04-22T20:23:04.804Z,99611
2023-04-22T20:28:58.205Z,99607
2023-04-22T20:34:58.955Z,99611
2023-04-22T20:53:19.333Z,99623
2023-04-22T21:05:36.804Z,99608
2023-04-22T21:24:25.172Z,99610
2023-04-22T21:30:39.183Z,99607
2023-04-22T21:36:38.158Z,99608
2023-04-22T21:42:43.575Z,99630
2023-04-22T21:48:41.877Z,99640
2023-04-22T21:54:36.272Z,99650
2023-04-22T22:00:31.068Z,99650
2023-04-22T22:06:29.981Z,99655
2023-04-22T22:12:31.631Z,99651
2023-04-22T22:18:26.937Z,99661
2023-04-22T22:24:25.386Z,99664
2023-04-22T22:30:19.707Z,99667
2023-04-22T22:36:16.096Z,99662
2023-04-22T22:42:29.619Z,99661
2023-04-22T22:48:30.490Z,99671
2023-04-22T22:54:24.443Z,99672
2023-04-22T23:00:18.936Z,99676
2023-04-22T23:06:16.357Z,99681
2023-04-22T23:12:12.539Z,99683
2023-04-22T23:18:26.320Z,99679
2023-04-22T23:24:20.033Z,99668
2023-04-22T23:30:30.299Z,99668
2023-04-22T23:36:28.920Z,99664
2023-04-22T23:42:21.955Z,99663
2023-04-22T23:48:29.704Z,99667
2023-04-22T23:54:57.558Z,99660
